Benatina, Slovakia

8:02 PM CET on January 23, 2017 (GMT +0100)
Kudlovská | | Change Station

Elev 567 ft 48.95 °N, 21.90 °E | Updated 6 minutes ago

Snow
Snow
17.4 °F
Feels Like 17 °F
N
0.6
Wind Variable Wind from NNE
Gusts 1.2 mph

Today
High -- | Low -- °F
--% Chance of Precip.
Yesterday
High -- | Low -- °F
Precip. -- in
Pressure 30.27 in
Visibility 1.9 miles
Clouds
Windchill 17 °F
Dew Point 15 °F
Humidity 91%
Rainfall 0.15 in
Snow Depth Not available.
7:11 AM 4:14 PM
Waning Crescent, 17% visible
METAR LZKZ 231900Z 35003KT 320V030 3000 BCFG BR NSC M08/M08 Q1025
Pressure 30.27 in
Visibility 1.9 miles
Clouds
Windchill 17 °F
Dew Point 15 °F
Humidity 91%
Rainfall 0.15 in
Snow Depth Not available.
7:11 AM 4:14 PM
Waning Crescent, 17% visible
METAR LZKZ 231900Z 35003KT 320V030 3000 BCFG BR NSC M08/M08 Q1025

Get Your Daily Forecast Email!

Thanks for signing up!

Be on the lookout for a verification email in your inbox.

You'll start receiving the daily forecast at 8 AM.

×

10-Day Weather Forecast

×

Almanac

Astronomy

Jan. 23, 2017 Rise Set
Actual Time
Civil Twilight
Nautical Twilight
Astronomical Twilight
Moon
Length of Visible Light
Length of Day
Tomorrow will be .
, % of the Moon is Illuminated

Today's Extremes

Country Highs Country Lows

Community

WunderPhotos

Upload Photos

1,962,540 photos uploaded!

WunderBlog® & News

Nearby

Air Quality

  Air Quality AQ Index Pollutant
Not available.

Snow Depth

Station Depth Elevation

Earthquake Activity

City Distance Mag. Time & Date
Minimum magnitude displayed is 2.5.

Coastal Water Temperatures

Place Temperature

Stations

Nearby Weather Stations

Station Location Temp. Windchill Dew Point Humidity Wind Precip. Elev Updated Type